Time;durP1;ratioP1;P1;durP2;ratioP2;P2;SDS_P1;SDS_P2;PMS_P1;PMS_P2;Temp;Humidity;BMP_temperature;BMP_pressure;BME280_temperature;BME280_humidity;BME280_pressure;Samples;Min_cycle;Max_cycle;Signal;HPM_P1;HPM_P2
2023/04/15 00:01:22;;;;;;;27.23;10.50;;;;;;;;;;5076747;28;20119;-82
2023/04/15 00:03:51;;;;;;;36.10;10.40;;;;;;;;;;5076648;28;20446;-82
2023/04/15 00:06:16;;;;;;;33.88;11.95;;;;;;;;;;5077089;28;20035;-82
2023/04/15 00:08:42;;;;;;;23.50;9.95;;;;;;;;;;5076475;28;20020;-82
2023/04/15 00:11:07;;;;;;;37.38;13.95;;;;;;;;;;5093265;28;20020;-82
2023/04/15 00:13:33;;;;;;;34.00;13.75;;;;;;;;;;5076013;28;20032;-82
2023/04/15 00:15:59;;;;;;;40.50;13.43;;;;;;;;;;5093514;28;20127;-83
2023/04/15 00:18:25;;;;;;;29.98;9.57;;;;;;;;;;5093282;28;20031;-82
2023/04/15 00:20:51;;;;;;;18.65;8.15;;;;;;;;;;5076374;28;20107;-82
2023/04/15 00:23:16;;;;;;;25.17;9.93;;;;;;;;;;5076482;28;20412;-85
2023/04/15 00:25:42;;;;;;;26.42;10.50;;;;;;;;;;5076452;28;20024;-82
2023/04/15 00:28:08;;;;;;;27.70;10.98;;;;;;;;;;5092688;28;20050;-84
2023/04/15 00:30:33;;;;;;;19.65;6.95;;;;;;;;;;5076502;28;20082;-85
2023/04/15 00:33:01;;;;;;;11.98;4.18;;;;;;;;;;5076380;28;20034;-84
2023/04/15 00:35:26;;;;;;;8.48;3.67;;;;;;;;;;5093278;28;20161;-85
2023/04/15 00:37:52;;;;;;;10.68;3.60;;;;;;;;;;5076202;28;20048;-86
2023/04/15 00:40:17;;;;;;;10.45;3.50;;;;;;;;;;5092889;28;20024;-84
2023/04/15 00:42:44;;;;;;;12.75;3.60;;;;;;;;;;5075966;28;20028;-84
2023/04/15 00:45:10;;;;;;;9.70;3.08;;;;;;;;;;5075868;28;20115;-82
2023/04/15 00:47:36;;;;;;;6.60;2.58;;;;;;;;;;5092880;28;20182;-82
2023/04/15 00:50:01;;;;;;;9.93;2.85;;;;;;;;;;5059467;28;20035;-82
2023/04/15 00:52:27;;;;;;;14.32;3.65;;;;;;;;;;5076046;28;20377;-84
2023/04/15 00:54:52;;;;;;;15.93;4.40;;;;;;;;;;5094316;28;20035;-83
2023/04/15 00:57:20;;;;;;;13.85;5.00;;;;;;;;;;5092508;28;20028;-83
2023/04/15 00:59:46;;;;;;;16.50;4.60;;;;;;;;;;5072714;28;20020;-83
2023/04/15 01:02:11;;;;;;;13.18;3.53;;;;;;;;;;5067904;28;20328;-84
2023/04/15 01:04:37;;;;;;;8.20;2.53;;;;;;;;;;5035776;28;20044;-83
2023/04/15 01:07:02;;;;;;;9.77;2.47;;;;;;;;;;5053557;28;20166;-83
2023/04/15 01:09:28;;;;;;;8.13;2.58;;;;;;;;;;5019433;28;20045;-84
2023/04/15 01:11:53;;;;;;;14.85;3.13;;;;;;;;;;5051847;28;20063;-83
2023/04/15 01:14:19;;;;;;;7.05;3.00;;;;;;;;;;5019303;28;20043;-83
2023/04/15 01:16:44;;;;;;;7.60;3.05;;;;;;;;;;5052326;28;20025;-83
2023/04/15 01:19:10;;;;;;;8.68;2.65;;;;;;;;;;5052153;28;20028;-82
2023/04/15 01:21:39;;;;;;;10.77;2.55;;;;;;;;;;5019359;28;20091;-82
2023/04/15 01:24:09;;;;;;;12.18;2.55;;;;;;;;;;5084907;28;20047;-83
2023/04/15 01:26:38;;;;;;;10.00;3.00;;;;;;;;;;5019218;28;20041;-83
2023/04/15 01:29:04;;;;;;;12.10;3.10;;;;;;;;;;5019502;28;20033;-83
2023/04/15 01:31:29;;;;;;;8.55;3.50;;;;;;;;;;5052070;28;20033;-82
2023/04/15 01:33:55;;;;;;;9.18;3.03;;;;;;;;;;5035468;28;20040;-84
2023/04/15 01:36:20;;;;;;;5.95;2.22;;;;;;;;;;5053468;28;20451;-84
2023/04/15 01:38:45;;;;;;;9.23;2.50;;;;;;;;;;5051981;28;20479;-84
2023/04/15 01:41:12;;;;;;;10.52;2.30;;;;;;;;;;5019456;28;20025;-84
2023/04/15 01:43:38;;;;;;;13.25;2.50;;;;;;;;;;5019234;28;20185;-84
2023/04/15 01:46:05;;;;;;;6.85;1.98;;;;;;;;;;5068729;28;20116;-84
2023/04/15 01:48:31;;;;;;;11.25;2.22;;;;;;;;;;5051969;28;20029;-84
2023/04/15 01:50:56;;;;;;;6.20;1.77;;;;;;;;;;5052009;28;20025;-84
2023/04/15 01:53:23;;;;;;;5.40;1.70;;;;;;;;;;5051750;28;20052;-85
2023/04/15 01:55:48;;;;;;;7.32;1.95;;;;;;;;;;5052171;28;20033;-82
2023/04/15 01:58:14;;;;;;;6.47;1.70;;;;;;;;;;5055281;28;20106;-83
2023/04/15 02:00:40;;;;;;;6.30;2.03;;;;;;;;;;5072492;28;20033;-83
2023/04/15 02:03:06;;;;;;;9.25;1.88;;;;;;;;;;5033884;28;20036;-83
2023/04/15 02:05:32;;;;;;;9.55;2.22;;;;;;;;;;5077046;28;20529;-82
2023/04/15 02:07:58;;;;;;;8.45;2.00;;;;;;;;;;5058426;28;20059;-83
2023/04/15 02:10:23;;;;;;;12.20;2.10;;;;;;;;;;5075771;28;20029;-83
2023/04/15 02:12:49;;;;;;;10.02;2.33;;;;;;;;;;5075370;28;20032;-82
2023/04/15 02:15:15;;;;;;;8.52;1.98;;;;;;;;;;5042419;28;20085;-82
2023/04/15 02:17:44;;;;;;;11.88;2.30;;;;;;;;;;5058908;28;20528;-85
2023/04/15 02:20:10;;;;;;;9.05;2.42;;;;;;;;;;5059710;28;20024;-84
2023/04/15 02:22:36;;;;;;;11.57;2.10;;;;;;;;;;5059379;28;20055;-82
2023/04/15 02:25:01;;;;;;;10.75;2.83;;;;;;;;;;5075688;28;20029;-84
2023/04/15 02:27:27;;;;;;;10.73;2.67;;;;;;;;;;5058502;28;20181;-85
2023/04/15 02:29:53;;;;;;;9.60;2.15;;;;;;;;;;5058572;28;20542;-85
2023/04/15 02:32:19;;;;;;;13.23;2.30;;;;;;;;;;5075099;28;20111;-85
2023/04/15 02:34:44;;;;;;;18.75;2.83;;;;;;;;;;5075065;28;20170;-84
2023/04/15 02:37:13;;;;;;;12.18;3.22;;;;;;;;;;5076172;28;20054;-85
2023/04/15 02:39:38;;;;;;;9.45;2.75;;;;;;;;;;5076329;28;20144;-84
2023/04/15 02:42:04;;;;;;;7.80;2.45;;;;;;;;;;5058517;28;20109;-84
2023/04/15 02:44:31;;;;;;;10.57;2.30;;;;;;;;;;5074937;28;20456;-84
2023/04/15 02:46:57;;;;;;;11.60;2.10;;;;;;;;;;5058430;28;20032;-84
2023/04/15 02:49:23;;;;;;;9.85;2.80;;;;;;;;;;5057958;28;20046;-84
2023/04/15 02:51:50;;;;;;;16.75;4.32;;;;;;;;;;5058093;28;20028;-84
2023/04/15 02:54:21;;;;;;;15.95;4.65;;;;;;;;;;5076067;28;20033;-84
2023/04/15 02:56:47;;;;;;;14.75;4.72;;;;;;;;;;5058673;28;20024;-85
2023/04/15 02:59:12;;;;;;;12.40;4.50;;;;;;;;;;5075142;28;20303;-84
2023/04/15 03:01:38;;;;;;;14.38;4.35;;;;;;;;;;5076318;28;20052;-84
2023/04/15 03:04:03;;;;;;;14.57;3.88;;;;;;;;;;5038493;28;20025;-84
2023/04/15 03:06:29;;;;;;;16.30;3.60;;;;;;;;;;5086299;28;20020;-84
2023/04/15 03:08:55;;;;;;;18.30;3.40;;;;;;;;;;5094300;28;20453;-84
2023/04/15 03:11:21;;;;;;;10.32;3.47;;;;;;;;;;5096052;28;20044;-84
2023/04/15 03:13:47;;;;;;;12.90;3.20;;;;;;;;;;5094369;28;20433;-85
2023/04/15 03:16:12;;;;;;;12.75;3.20;;;;;;;;;;5097363;28;20039;-84
2023/04/15 03:18:37;;;;;;;9.40;2.85;;;;;;;;;;5094458;28;20132;-84
2023/04/15 03:21:05;;;;;;;14.10;3.10;;;;;;;;;;5094061;28;20035;-86
2023/04/15 03:23:30;;;;;;;15.65;3.33;;;;;;;;;;5094874;28;20028;-82
2023/04/15 03:25:57;;;;;;;11.27;2.80;;;;;;;;;;5077924;28;20444;-84
2023/04/15 03:28:23;;;;;;;6.78;2.50;;;;;;;;;;5061189;28;20119;-84
2023/04/15 03:30:48;;;;;;;9.10;2.65;;;;;;;;;;5077631;28;20052;-82
2023/04/15 03:33:14;;;;;;;15.55;3.28;;;;;;;;;;5077213;28;20082;-84
2023/04/15 03:35:39;;;;;;;10.68;3.15;;;;;;;;;;5095321;28;20032;-82
2023/04/15 03:38:05;;;;;;;7.63;2.25;;;;;;;;;;5093972;28;20039;-83
2023/04/15 03:40:30;;;;;;;6.82;1.92;;;;;;;;;;5077420;28;20036;-83
2023/04/15 03:42:56;;;;;;;10.88;2.65;;;;;;;;;;5094214;28;20027;-83
2023/04/15 03:45:21;;;;;;;7.90;2.72;;;;;;;;;;5077293;28;20039;-83
2023/04/15 03:47:48;;;;;;;14.95;3.70;;;;;;;;;;5060389;28;20431;-83
2023/04/15 03:50:15;;;;;;;24.08;5.15;;;;;;;;;;5110573;28;20441;-83
2023/04/15 03:52:40;;;;;;;20.88;6.20;;;;;;;;;;5076977;28;20032;-83
2023/04/15 03:55:07;;;;;;;20.35;6.75;;;;;;;;;;5077095;28;20092;-83
2023/04/15 03:57:36;;;;;;;21.02;6.50;;;;;;;;;;5077064;28;20515;-84
2023/04/15 04:00:03;;;;;;;21.53;6.20;;;;;;;;;;5093777;28;20028;-84
2023/04/15 04:02:28;;;;;;;23.40;6.60;;;;;;;;;;5076898;28;20044;-84
2023/04/15 04:04:54;;;;;;;21.33;6.40;;;;;;;;;;5060079;28;20035;-84
2023/04/15 04:07:19;;;;;;;12.02;4.90;;;;;;;;;;5075986;28;20506;-84
2023/04/15 04:09:45;;;;;;;16.40;4.88;;;;;;;;;;5076478;28;20483;-84
2023/04/15 04:12:10;;;;;;;19.15;5.20;;;;;;;;;;5076937;28;20050;-83
2023/04/15 04:14:38;;;;;;;21.83;5.88;;;;;;;;;;5076599;28;20040;-84
2023/04/15 04:17:03;;;;;;;18.08;5.40;;;;;;;;;;5093297;28;20031;-85
2023/04/15 04:19:29;;;;;;;19.10;5.68;;;;;;;;;;5092922;28;20028;-85
2023/04/15 04:21:54;;;;;;;28.90;7.07;;;;;;;;;;5092594;28;20038;-84
2023/04/15 04:24:20;;;;;;;20.25;6.40;;;;;;;;;;5094443;28;20067;-85
2023/04/15 04:26:45;;;;;;;27.38;6.22;;;;;;;;;;5093176;28;20064;-85
2023/04/15 04:29:11;;;;;;;37.92;8.85;;;;;;;;;;5094402;28;20119;-84
2023/04/15 04:31:36;;;;;;;52.00;14.38;;;;;;;;;;5093324;28;20052;-83
2023/04/15 04:34:01;;;;;;;55.58;14.02;;;;;;;;;;5092772;28;20093;-85
2023/04/15 04:36:27;;;;;;;21.33;6.07;;;;;;;;;;5076141;28;20035;-84
2023/04/15 04:38:52;;;;;;;20.85;6.57;;;;;;;;;;5092975;28;20035;-84
2023/04/15 04:41:18;;;;;;;20.80;5.03;;;;;;;;;;5076135;28;20454;-84
2023/04/15 04:43:43;;;;;;;21.20;4.70;;;;;;;;;;5076386;28;20035;-84
2023/04/15 04:46:09;;;;;;;7.93;3.33;;;;;;;;;;5093050;28;20035;-84
2023/04/15 04:48:34;;;;;;;13.40;3.60;;;;;;;;;;5093865;28;20039;-84
2023/04/15 04:51:00;;;;;;;16.15;3.80;;;;;;;;;;5094708;28;20024;-84
2023/04/15 04:53:26;;;;;;;13.18;3.92;;;;;;;;;;5075959;28;20393;-83
2023/04/15 04:55:52;;;;;;;13.82;3.60;;;;;;;;;;5093152;28;20169;-83
2023/04/15 04:58:17;;;;;;;13.95;3.92;;;;;;;;;;5076064;28;20709;-84
2023/04/15 05:00:43;;;;;;;14.32;3.60;;;;;;;;;;5094012;28;20508;-83
2023/04/15 05:03:08;;;;;;;10.50;3.90;;;;;;;;;;5059030;28;20040;-84
2023/04/15 05:05:35;;;;;;;15.23;4.07;;;;;;;;;;5075974;28;20024;-83
2023/04/15 05:08:01;;;;;;;15.73;3.40;;;;;;;;;;5078348;28;20096;-84
2023/04/15 05:10:27;;;;;;;16.92;4.40;;;;;;;;;;5076108;28;20124;-84
2023/04/15 05:12:52;;;;;;;12.48;4.68;;;;;;;;;;5092418;28;20564;-84
2023/04/15 05:15:17;;;;;;;16.77;5.18;;;;;;;;;;5093739;28;20126;-85
2023/04/15 05:17:43;;;;;;;19.65;5.57;;;;;;;;;;5075604;28;20047;-84
2023/04/15 05:20:09;;;;;;;21.05;7.22;;;;;;;;;;5092354;28;20441;-84
2023/04/15 05:22:35;;;;;;;17.65;5.55;;;;;;;;;;5092292;28;20110;-83
2023/04/15 05:25:00;;;;;;;20.65;5.85;;;;;;;;;;5092293;28;20051;-85
2023/04/15 05:27:25;;;;;;;16.50;5.60;;;;;;;;;;5092295;28;20060;-84
2023/04/15 05:29:51;;;;;;;17.50;5.97;;;;;;;;;;5075645;28;20035;-84
2023/04/15 05:32:16;;;;;;;14.93;4.72;;;;;;;;;;5093865;28;20031;-84
2023/04/15 05:34:42;;;;;;;16.92;4.28;;;;;;;;;;5079478;28;20046;-85
2023/04/15 05:37:07;;;;;;;23.27;4.68;;;;;;;;;;5096373;28;20059;-84
2023/04/15 05:39:33;;;;;;;15.48;4.07;;;;;;;;;;5079701;28;20058;-84
2023/04/15 05:41:59;;;;;;;10.10;3.58;;;;;;;;;;5096849;28;20493;-83
2023/04/15 05:44:25;;;;;;;17.88;5.03;;;;;;;;;;5062949;28;20024;-84
2023/04/15 05:46:50;;;;;;;15.85;5.82;;;;;;;;;;5079520;28;20032;-84
2023/04/15 05:49:16;;;;;;;15.45;6.72;;;;;;;;;;5097342;28;20418;-84
2023/04/15 05:51:41;;;;;;;25.90;8.07;;;;;;;;;;5079185;28;20023;-84
2023/04/15 05:54:07;;;;;;;26.90;9.07;;;;;;;;;;5079309;28;20032;-84
2023/04/15 05:56:32;;;;;;;28.13;12.10;;;;;;;;;;5096040;28;20039;-85
2023/04/15 05:58:57;;;;;;;27.60;9.18;;;;;;;;;;5095894;28;20028;-84
2023/04/15 06:01:24;;;;;;;20.27;5.50;;;;;;;;;;5095599;28;20032;-85
2023/04/15 06:03:50;;;;;;;10.48;4.82;;;;;;;;;;5095937;28;20110;-85
2023/04/15 06:06:15;;;;;;;15.65;3.95;;;;;;;;;;5079096;28;20031;-84
2023/04/15 06:08:41;;;;;;;31.42;5.45;;;;;;;;;;5094220;28;20350;-85
2023/04/15 06:11:06;;;;;;;27.45;6.25;;;;;;;;;;5075638;28;20123;-85
2023/04/15 06:13:32;;;;;;;26.50;5.75;;;;;;;;;;5058846;28;20117;-85
2023/04/15 06:15:58;;;;;;;13.13;2.97;;;;;;;;;;5075417;28;20031;-84
2023/04/15 06:18:24;;;;;;;20.98;3.83;;;;;;;;;;5058703;28;20029;-86
2023/04/15 06:21:33;;;;;;;12.55;2.90;;;;;;;;;;5075920;28;20035;-85
2023/04/15 06:24:00;;;;;;;7.40;2.35;;;;;;;;;;5075660;28;20126;-84
2023/04/15 06:26:26;;;;;;;21.10;2.78;;;;;;;;;;5042637;28;20369;-85
2023/04/15 06:28:51;;;;;;;12.40;2.03;;;;;;;;;;5076147;28;20024;-83
2023/04/15 06:31:16;;;;;;;12.10;2.28;;;;;;;;;;5058548;28;20127;-82
2023/04/15 06:33:42;;;;;;;8.68;2.70;;;;;;;;;;5075243;28;20056;-83
2023/04/15 06:36:07;;;;;;;9.20;2.40;;;;;;;;;;5059732;28;20634;-85
2023/04/15 06:38:33;;;;;;;9.63;2.45;;;;;;;;;;5076573;28;20028;-84
2023/04/15 06:40:58;;;;;;;10.73;2.97;;;;;;;;;;5064949;28;20029;-83
2023/04/15 06:43:24;;;;;;;13.88;3.20;;;;;;;;;;5097342;28;20028;-81
2023/04/15 06:45:50;;;;;;;15.10;3.15;;;;;;;;;;5112099;28;20028;-81
2023/04/15 06:48:16;;;;;;;20.85;2.97;;;;;;;;;;5092723;28;20059;-83
2023/04/15 06:50:42;;;;;;;11.90;2.70;;;;;;;;;;5089624;28;20043;-82
2023/04/15 06:53:07;;;;;;;9.32;2.30;;;;;;;;;;5071494;28;20024;-83
2023/04/15 06:55:33;;;;;;;13.32;2.97;;;;;;;;;;5087295;28;20168;-84
2023/04/15 06:57:59;;;;;;;8.00;1.90;;;;;;;;;;5059258;28;20446;-84
2023/04/15 07:00:25;;;;;;;13.00;2.05;;;;;;;;;;5074773;28;20073;-84
2023/04/15 07:02:50;;;;;;;7.53;2.40;;;;;;;;;;5074850;28;20056;-82
2023/04/15 07:05:31;;;;;;;10.20;2.40;;;;;;;;;;5074335;28;20117;-84
2023/04/15 07:07:57;;;;;;;11.00;2.63;;;;;;;;;;5074283;28;20073;-84
2023/04/15 07:10:22;;;;;;;13.13;2.47;;;;;;;;;;5109248;28;20122;-85
2023/04/15 07:12:49;;;;;;;10.75;2.17;;;;;;;;;;5077543;28;20039;-84
2023/04/15 07:15:15;;;;;;;11.13;2.20;;;;;;;;;;5077923;28;20024;-84
2023/04/15 07:17:42;;;;;;;9.60;1.80;;;;;;;;;;5094442;28;20167;-83
2023/04/15 07:20:07;;;;;;;10.65;1.50;;;;;;;;;;5094858;28;20121;-83
2023/04/15 07:22:33;;;;;;;8.52;1.73;;;;;;;;;;5094344;28;20479;-82
2023/04/15 07:24:58;;;;;;;6.63;1.63;;;;;;;;;;5061065;28;20449;-83
2023/04/15 07:27:24;;;;;;;14.45;1.70;;;;;;;;;;5077283;28;20125;-83
2023/04/15 07:29:50;;;;;;;5.20;1.42;;;;;;;;;;5077724;28;20028;-84
2023/04/15 07:32:16;;;;;;;7.30;2.10;;;;;;;;;;5077484;28;20026;-82
2023/04/15 07:34:42;;;;;;;7.10;1.60;;;;;;;;;;5093918;28;20032;-82
2023/04/15 07:37:07;;;;;;;11.88;2.50;;;;;;;;;;5093903;28;20439;-84
2023/04/15 07:39:32;;;;;;;8.90;2.22;;;;;;;;;;5087905;28;20021;-84
2023/04/15 07:42:37;;;;;;;14.68;3.25;;;;;;;;;;5074618;28;20336;-84
2023/04/15 07:45:02;;;;;;;9.35;2.78;;;;;;;;;;5074548;28;20094;-84
2023/04/15 07:47:28;;;;;;;13.00;3.13;;;;;;;;;;5056834;28;20033;-84
2023/04/15 07:49:53;;;;;;;12.23;2.10;;;;;;;;;;5057103;28;20024;-84
2023/04/15 07:52:19;;;;;;;14.05;1.90;;;;;;;;;;5056736;28;20115;-84
2023/04/15 07:54:44;;;;;;;9.32;1.70;;;;;;;;;;5074535;28;20032;-83
2023/04/15 07:57:10;;;;;;;5.30;1.83;;;;;;;;;;5056527;28;20032;-83
2023/04/15 07:59:35;;;;;;;6.47;1.88;;;;;;;;;;5056882;28;20024;-84
2023/04/15 08:02:01;;;;;;;7.50;2.22;;;;;;;;;;5056677;28;20454;-83
2023/04/15 08:04:27;;;;;;;8.48;1.95;;;;;;;;;;5073244;28;20025;-85
2023/04/15 08:06:52;;;;;;;10.43;2.00;;;;;;;;;;5056912;28;20354;-84
2023/04/15 08:09:18;;;;;;;7.80;2.72;;;;;;;;;;5065341;28;20016;-84
2023/04/15 08:11:44;;;;;;;11.45;2.10;;;;;;;;;;5076480;28;20119;-83
2023/04/15 08:14:09;;;;;;;10.68;1.80;;;;;;;;;;5076533;28;20020;-84
2023/04/15 08:16:35;;;;;;;10.10;1.85;;;;;;;;;;5094685;28;20028;-85
2023/04/15 08:19:01;;;;;;;12.00;2.25;;;;;;;;;;5076708;28;20024;-84
2023/04/15 08:21:29;;;;;;;21.58;1.98;;;;;;;;;;5093558;28;20046;-86
2023/04/15 08:23:55;;;;;;;6.82;1.92;;;;;;;;;;5094808;28;20123;-85
2023/04/15 08:26:21;;;;;;;10.80;1.85;;;;;;;;;;5093026;28;20115;-85
2023/04/15 08:28:46;;;;;;;9.38;1.70;;;;;;;;;;5093524;28;20073;-84
2023/04/15 08:31:13;;;;;;;8.05;1.80;;;;;;;;;;5093324;28;20028;-83
2023/04/15 08:33:39;;;;;;;8.93;1.45;;;;;;;;;;5076431;28;20055;-85
2023/04/15 08:36:05;;;;;;;5.82;1.80;;;;;;;;;;5059890;28;20032;-84
2023/04/15 08:38:30;;;;;;;7.25;1.63;;;;;;;;;;5093255;28;20097;-85
2023/04/15 08:40:56;;;;;;;7.78;1.20;;;;;;;;;;5092970;28;20035;-84
2023/04/15 08:43:25;;;;;;;7.97;1.80;;;;;;;;;;5055119;28;20119;-83
2023/04/15 08:45:51;;;;;;;4.95;1.20;;;;;;;;;;5089702;28;20366;-84
2023/04/15 08:48:17;;;;;;;4.40;1.30;;;;;;;;;;5055667;28;20040;-84
2023/04/15 08:50:43;;;;;;;3.05;1.10;;;;;;;;;;5072620;28;20039;-84
2023/04/15 08:53:10;;;;;;;8.05;1.10;;;;;;;;;;5089264;28;20029;-84
2023/04/15 08:55:36;;;;;;;6.55;1.10;;;;;;;;;;5055790;28;20056;-86
2023/04/15 08:58:01;;;;;;;6.25;1.58;;;;;;;;;;5072543;28;20066;-84
2023/04/15 09:00:28;;;;;;;5.72;1.35;;;;;;;;;;5072357;28;20465;-84
2023/04/15 09:02:55;;;;;;;6.95;1.38;;;;;;;;;;5089129;28;20090;-84
2023/04/15 09:05:20;;;;;;;8.52;1.65;;;;;;;;;;5074487;28;20024;-85
2023/04/15 09:07:46;;;;;;;6.38;1.30;;;;;;;;;;5071863;28;20035;-84
2023/04/15 09:10:11;;;;;;;5.80;1.30;;;;;;;;;;5089176;28;20034;-85
2023/04/15 09:12:37;;;;;;;3.00;1.20;;;;;;;;;;5059289;28;20063;-85
2023/04/15 09:15:02;;;;;;;6.57;1.67;;;;;;;;;;5092858;28;20393;-86
2023/04/15 09:17:28;;;;;;;5.93;1.65;;;;;;;;;;5093923;28;20472;-83
2023/04/15 09:20:12;;;;;;;7.10;1.25;;;;;;;;;;5092761;28;20031;-84
2023/04/15 09:22:38;;;;;;;8.57;1.33;;;;;;;;;;5092738;28;20028;-84
2023/04/15 09:25:04;;;;;;;7.97;1.17;;;;;;;;;;5075382;28;20067;-84
2023/04/15 09:27:30;;;;;;;5.22;1.40;;;;;;;;;;5075836;28;20028;-83
2023/04/15 09:29:55;;;;;;;9.25;2.00;;;;;;;;;;5092669;28;20035;-83
2023/04/15 09:32:22;;;;;;;7.43;1.83;;;;;;;;;;5092623;28;20038;-84
2023/04/15 09:34:48;;;;;;;8.10;1.30;;;;;;;;;;5092435;28;20086;-85
2023/04/15 09:37:19;;;;;;;10.05;1.73;;;;;;;;;;5093663;28;20032;-85
2023/04/15 09:39:48;;;;;;;11.90;1.67;;;;;;;;;;5076212;28;20039;-83
2023/04/15 09:42:14;;;;;;;15.40;1.40;;;;;;;;;;5092302;28;20032;-84
2023/04/15 09:44:40;;;;;;;5.53;1.40;;;;;;;;;;5093611;28;20457;-83
2023/04/15 09:47:05;;;;;;;6.28;1.42;;;;;;;;;;5085308;28;20463;-82
2023/04/15 09:49:34;;;;;;;16.48;1.77;;;;;;;;;;5075436;28;20035;-85
2023/04/15 09:52:00;;;;;;;5.55;1.50;;;;;;;;;;5076042;28;20028;-82
2023/04/15 09:54:32;;;;;;;9.82;1.80;;;;;;;;;;5097888;28;20036;-81
2023/04/15 09:57:04;;;;;;;15.68;1.40;;;;;;;;;;5077391;28;20028;-82
2023/04/15 09:59:29;;;;;;;7.10;1.50;;;;;;;;;;5060200;28;20081;-83
2023/04/15 10:01:55;;;;;;;7.38;1.30;;;;;;;;;;5092323;28;20382;-83
2023/04/15 10:04:20;;;;;;;8.73;2.00;;;;;;;;;;5092226;28;20418;-83
2023/04/15 10:06:46;;;;;;;5.97;1.48;;;;;;;;;;5058542;28;20412;-83
2023/04/15 10:09:12;;;;;;;8.52;1.23;;;;;;;;;;5067653;28;20060;-86
2023/04/15 10:11:38;;;;;;;5.85;1.88;;;;;;;;;;5072283;28;20110;-85
2023/04/15 10:14:03;;;;;;;5.38;1.20;;;;;;;;;;5088788;28;20044;-85
2023/04/15 10:16:29;;;;;;;17.50;1.98;;;;;;;;;;5073075;28;20140;-85
2023/04/15 10:18:55;;;;;;;10.90;2.70;;;;;;;;;;5056301;28;20025;-86
2023/04/15 10:21:22;;;;;;;6.93;1.52;;;;;;;;;;5075160;28;20035;-85
2023/04/15 10:23:48;;;;;;;6.20;1.45;;;;;;;;;;5075531;28;20086;-85
2023/04/15 10:26:13;;;;;;;7.05;1.30;;;;;;;;;;5075705;28;20029;-84
2023/04/15 10:28:43;;;;;;;3.97;1.48;;;;;;;;;;5075523;28;20024;-85
2023/04/15 10:31:11;;;;;;;12.35;1.25;;;;;;;;;;5075356;28;20028;-85
2023/04/15 10:33:37;;;;;;;7.90;1.30;;;;;;;;;;5075563;28;20032;-85
2023/04/15 10:36:03;;;;;;;8.15;1.10;;;;;;;;;;5058561;28;20028;-85
2023/04/15 10:38:33;;;;;;;5.13;1.45;;;;;;;;;;5075060;28;20472;-85
2023/04/15 10:41:33;;;;;;;5.28;1.25;;;;;;;;;;5076328;28;20077;-85
2023/04/15 10:43:59;;;;;;;6.53;0.90;;;;;;;;;;5076353;28;20035;-85
2023/04/15 10:46:38;;;;;;;6.03;1.27;;;;;;;;;;5076227;28;20025;-83
2023/04/15 10:49:16;;;;;;;6.10;1.70;;;;;;;;;;5070821;28;20032;-83
2023/04/15 10:51:46;;;;;;;9.40;1.10;;;;;;;;;;5091124;28;20025;-86
2023/04/15 10:54:16;;;;;;;4.07;1.20;;;;;;;;;;5058028;28;20040;-85
2023/04/15 10:56:44;;;;;;;10.25;1.23;;;;;;;;;;5058333;28;20020;-85
2023/04/15 10:59:10;;;;;;;3.75;0.93;;;;;;;;;;5058121;28;20041;-85
2023/04/15 11:01:53;;;;;;;3.78;0.98;;;;;;;;;;5074356;28;20423;-83
2023/04/15 11:04:56;;;;;;;4.35;1.10;;;;;;;;;;5075420;28;20525;-84
2023/04/15 11:07:43;;;;;;;4.60;1.08;;;;;;;;;;5075701;28;20055;-84
2023/04/15 11:10:17;;;;;;;4.78;1.40;;;;;;;;;;5090633;28;20028;-84
2023/04/15 11:12:53;;;;;;;12.30;2.10;;;;;;;;;;5094692;28;20482;-85
2023/04/15 11:15:41;;;;;;;8.07;1.50;;;;;;;;;;5094503;28;20028;-84
2023/04/15 11:18:17;;;;;;;7.22;1.25;;;;;;;;;;5078004;28;20028;-83
2023/04/15 11:20:49;;;;;;;8.63;1.45;;;;;;;;;;5095775;28;20055;-84
2023/04/15 11:23:17;;;;;;;10.10;1.80;;;;;;;;;;5078356;28;20040;-84
2023/04/15 11:25:43;;;;;;;11.35;1.33;;;;;;;;;;5077819;28;20024;-84
2023/04/15 11:28:09;;;;;;;6.32;1.48;;;;;;;;;;5061052;28;20127;-84
2023/04/15 11:30:35;;;;;;;5.60;1.60;;;;;;;;;;5077214;28;20452;-83
2023/04/15 11:33:05;;;;;;;11.93;1.90;;;;;;;;;;5061196;28;20028;-84
2023/04/15 11:35:30;;;;;;;4.88;1.40;;;;;;;;;;5077300;28;20065;-84
2023/04/15 11:37:57;;;;;;;4.50;1.38;;;;;;;;;;5077860;28;20134;-83
2023/04/15 11:40:23;;;;;;;8.00;1.75;;;;;;;;;;5077595;28;20032;-83
2023/04/15 11:43:11;;;;;;;8.63;1.60;;;;;;;;;;5077557;28;20028;-83
2023/04/15 11:45:38;;;;;;;4.78;1.58;;;;;;;;;;5077549;28;20019;-83
2023/04/15 11:48:10;;;;;;;5.70;1.50;;;;;;;;;;5076914;28;20101;-84
2023/04/15 11:50:37;;;;;;;7.53;3.00;;;;;;;;;;5048351;28;20029;-84
2023/04/15 11:53:03;;;;;;;11.57;1.83;;;;;;;;;;5073526;28;20035;-83
2023/04/15 11:55:29;;;;;;;11.48;3.05;;;;;;;;;;5074408;28;20449;-84
2023/04/15 11:58:07;;;;;;;9.02;2.67;;;;;;;;;;5055859;28;20461;-84
2023/04/15 12:00:33;;;;;;;8.23;1.92;;;;;;;;;;5075709;28;20028;-84
2023/04/15 12:03:18;;;;;;;12.13;2.10;;;;;;;;;;5074159;28;20048;-84
2023/04/15 12:06:03;;;;;;;4.43;1.30;;;;;;;;;;5081222;28;20029;-84
2023/04/15 12:09:08;;;;;;;5.07;1.55;;;;;;;;;;5077487;28;20028;-84
2023/04/15 12:11:36;;;;;;;6.13;1.33;;;;;;;;;;5042323;28;20473;-83
2023/04/15 12:14:08;;;;;;;6.57;1.40;;;;;;;;;;5042148;28;20048;-84
2023/04/15 12:16:35;;;;;;;6.90;1.73;;;;;;;;;;5049112;28;20041;-83
2023/04/15 12:19:05;;;;;;;5.97;1.42;;;;;;;;;;5036523;28;20457;-83
2023/04/15 12:21:34;;;;;;;8.75;1.83;;;;;;;;;;5020222;28;20481;-83
2023/04/15 12:24:01;;;;;;;6.77;1.87;;;;;;;;;;5036538;28;20075;-84
2023/04/15 12:26:28;;;;;;;11.70;1.92;;;;;;;;;;5036749;28;20028;-86
2023/04/15 12:29:00;;;;;;;7.32;1.70;;;;;;;;;;5020325;28;20064;-85
2023/04/15 12:31:26;;;;;;;9.35;1.73;;;;;;;;;;5036347;28;20037;-84
2023/04/15 12:33:54;;;;;;;11.77;2.00;;;;;;;;;;5052931;28;20481;-85
2023/04/15 12:36:19;;;;;;;4.38;1.67;;;;;;;;;;5036624;28;20504;-85
2023/04/15 12:38:45;;;;;;;6.55;1.95;;;;;;;;;;5053082;28;20033;-85
2023/04/15 12:41:11;;;;;;;9.45;1.58;;;;;;;;;;5035701;28;20370;-84
2023/04/15 12:43:36;;;;;;;7.10;1.88;;;;;;;;;;5036132;28;20032;-85
2023/04/15 12:46:02;;;;;;;5.63;1.60;;;;;;;;;;5020231;28;20021;-85
2023/04/15 12:48:27;;;;;;;4.18;1.30;;;;;;;;;;5054141;28;20082;-84
2023/04/15 12:50:53;;;;;;;6.47;1.58;;;;;;;;;;5054146;28;20427;-84
2023/04/15 12:53:19;;;;;;;7.40;1.70;;;;;;;;;;5048251;28;20032;-85
2023/04/15 12:55:44;;;;;;;7.30;1.48;;;;;;;;;;5073057;28;20048;-85
2023/04/15 12:58:10;;;;;;;3.55;1.42;;;;;;;;;;5072551;28;20028;-85
2023/04/15 13:00:36;;;;;;;4.70;1.20;;;;;;;;;;5055813;28;20155;-85
2023/04/15 13:03:02;;;;;;;4.80;1.40;;;;;;;;;;5052111;28;20051;-86
2023/04/15 13:05:27;;;;;;;5.18;1.20;;;;;;;;;;5035870;28;20131;-84
2023/04/15 13:07:53;;;;;;;11.30;2.35;;;;;;;;;;5035775;28;20037;-85
2023/04/15 13:10:18;;;;;;;5.82;1.40;;;;;;;;;;5085264;28;20105;-85
2023/04/15 13:12:45;;;;;;;10.25;4.10;;;;;;;;;;5059087;28;20028;-85
2023/04/15 13:15:11;;;;;;;22.08;9.90;;;;;;;;;;5092279;28;20046;-85
2023/04/15 13:17:37;;;;;;;15.35;1.83;;;;;;;;;;5075692;28;20028;-84
2023/04/15 13:20:03;;;;;;;5.13;2.13;;;;;;;;;;5070416;28;20030;-85
2023/04/15 13:22:28;;;;;;;7.43;1.33;;;;;;;;;;5055422;28;20115;-84
2023/04/15 13:24:54;;;;;;;4.30;1.63;;;;;;;;;;5072674;28;20090;-84
2023/04/15 13:27:20;;;;;;;4.55;1.60;;;;;;;;;;5072393;28;20438;-84
2023/04/15 13:29:45;;;;;;;13.68;1.90;;;;;;;;;;5055625;28;20029;-84
2023/04/15 13:32:11;;;;;;;4.88;1.50;;;;;;;;;;5072833;28;20030;-84
2023/04/15 13:34:36;;;;;;;13.63;2.17;;;;;;;;;;5073408;28;20427;-84
2023/04/15 13:37:06;;;;;;;4.90;1.70;;;;;;;;;;5055480;28;20450;-84
2023/04/15 13:39:31;;;;;;;;;;;;;;;;;;5073225;28;20400;-83
2023/04/15 13:41:57;;;;;;;7.80;1.85;;;;;;;;;;5055394;28;20007;-84
2023/04/15 13:44:22;;;;;;;6.05;1.88;;;;;;;;;;5088897;28;20024;-85
2023/04/15 13:46:48;;;;;;;13.00;3.15;;;;;;;;;;5072192;28;20182;-84
2023/04/15 13:49:13;;;;;;;12.18;2.80;;;;;;;;;;5072324;28;20070;-84
2023/04/15 13:51:39;;;;;;;6.10;2.10;;;;;;;;;;5055620;28;20133;-85
2023/04/15 13:54:05;;;;;;;8.32;1.90;;;;;;;;;;5058678;28;20082;-86
2023/04/15 13:56:30;;;;;;;5.10;1.95;;;;;;;;;;5076053;28;20037;-86
2023/04/15 13:58:57;;;;;;;7.90;2.78;;;;;;;;;;5075673;28;20123;-86
2023/04/15 14:01:24;;;;;;;6.75;2.13;;;;;;;;;;5059356;28;20127;-85
2023/04/15 14:03:50;;;;;;;11.05;4.95;;;;;;;;;;5076170;28;20042;-85
2023/04/15 14:06:15;;;;;;;10.40;4.97;;;;;;;;;;5077145;28;20032;-85
2023/04/15 14:08:40;;;;;;;8.38;2.45;;;;;;;;;;5076881;28;20032;-85
2023/04/15 14:11:06;;;;;;;6.13;1.48;;;;;;;;;;5076847;28;20028;-86
2023/04/15 14:13:31;;;;;;;4.28;1.77;;;;;;;;;;5076523;28;20028;-85
2023/04/15 14:15:57;;;;;;;5.55;1.95;;;;;;;;;;5075720;28;20032;-85
2023/04/15 14:18:22;;;;;;;5.78;2.25;;;;;;;;;;5075386;28;20036;-85
2023/04/15 14:20:48;;;;;;;4.07;1.58;;;;;;;;;;5059092;28;20035;-85
2023/04/15 14:23:13;;;;;;;5.05;1.77;;;;;;;;;;5075241;28;20358;-85
2023/04/15 14:25:38;;;;;;;7.03;1.65;;;;;;;;;;5078802;28;20370;-86
2023/04/15 14:28:04;;;;;;;7.15;1.90;;;;;;;;;;5095234;28;20059;-86
2023/04/15 14:30:29;;;;;;;5.05;1.70;;;;;;;;;;5061807;28;20043;-85
2023/04/15 14:32:55;;;;;;;13.18;1.85;;;;;;;;;;5078623;28;20020;-85
2023/04/15 14:35:20;;;;;;;4.28;1.70;;;;;;;;;;5095470;28;20077;-85